sensor_id;sensor_type;location;lat;lon;timestamp;temperature;humidity
12827;DHT22;66927;48.812;9.118;2023-08-06T00:00:15;18.20;99.90
12827;DHT22;66927;48.812;9.118;2023-08-06T00:02:41;18.30;99.90
12827;DHT22;66927;48.812;9.118;2023-08-06T00:05:06;18.30;99.90
12827;DHT22;66927;48.812;9.118;2023-08-06T00:07:32;18.30;99.90
12827;DHT22;66927;48.812;9.118;2023-08-06T00:09:58;18.30;99.90
12827;DHT22;66927;48.812;9.118;2023-08-06T00:12:23;18.30;99.90
12827;DHT22;66927;48.812;9.118;2023-08-06T00:14:52;18.30;99.90
12827;DHT22;66927;48.812;9.118;2023-08-06T00:17:19;18.30;99.90
12827;DHT22;66927;48.812;9.118;2023-08-06T00:19:46;18.20;99.90
12827;DHT22;66927;48.812;9.118;2023-08-06T00:22:12;18.30;99.90
12827;DHT22;66927;48.812;9.118;2023-08-06T00:24:37;18.10;99.90
12827;DHT22;66927;48.812;9.118;2023-08-06T00:27:03;18.00;99.90
12827;DHT22;66927;48.812;9.118;2023-08-06T00:29:29;18.00;99.90
12827;DHT22;66927;48.812;9.118;2023-08-06T00:31:55;17.90;99.90
12827;DHT22;66927;48.812;9.118;2023-08-06T00:34:20;17.90;99.90
12827;DHT22;66927;48.812;9.118;2023-08-06T00:36:47;18.00;99.90
12827;DHT22;66927;48.812;9.118;2023-08-06T00:39:14;17.90;99.90
12827;DHT22;66927;48.812;9.118;2023-08-06T00:41:40;18.00;99.90
12827;DHT22;66927;48.812;9.118;2023-08-06T00:44:05;18.00;99.90
12827;DHT22;66927;48.812;9.118;2023-08-06T00:46:33;18.00;99.90
12827;DHT22;66927;48.812;9.118;2023-08-06T00:48:59;17.90;99.90
12827;DHT22;66927;48.812;9.118;2023-08-06T00:51:25;18.00;99.90
12827;DHT22;66927;48.812;9.118;2023-08-06T00:53:52;18.00;99.90
12827;DHT22;66927;48.812;9.118;2023-08-06T00:56:19;17.90;99.90
12827;DHT22;66927;48.812;9.118;2023-08-06T00:58:45;17.90;99.90
12827;DHT22;66927;48.812;9.118;2023-08-06T01:01:11;17.90;99.90
12827;DHT22;66927;48.812;9.118;2023-08-06T01:03:37;17.80;99.90
12827;DHT22;66927;48.812;9.118;2023-08-06T01:06:02;17.80;99.90
12827;DHT22;66927;48.812;9.118;2023-08-06T01:11:26;17.80;99.90
12827;DHT22;66927;48.812;9.118;2023-08-06T01:14:02;17.80;99.90
12827;DHT22;66927;48.812;9.118;2023-08-06T01:16:33;17.80;99.90
12827;DHT22;66927;48.812;9.118;2023-08-06T01:18:58;17.80;99.90
12827;DHT22;66927;48.812;9.118;2023-08-06T01:21:24;17.90;99.90
12827;DHT22;66927;48.812;9.118;2023-08-06T01:23:50;17.80;99.90
12827;DHT22;66927;48.812;9.118;2023-08-06T01:26:33;17.80;99.90
12827;DHT22;66927;48.812;9.118;2023-08-06T01:29:28;17.80;99.90
12827;DHT22;66927;48.812;9.118;2023-08-06T01:31:56;17.80;99.90
12827;DHT22;66927;48.812;9.118;2023-08-06T01:34:29;17.70;99.90
12827;DHT22;66927;48.812;9.118;2023-08-06T01:36:56;17.70;99.90
12827;DHT22;66927;48.812;9.118;2023-08-06T01:39:22;17.70;99.90
12827;DHT22;66927;48.812;9.118;2023-08-06T01:41:48;17.70;99.90
12827;DHT22;66927;48.812;9.118;2023-08-06T01:44:15;17.70;99.90
12827;DHT22;66927;48.812;9.118;2023-08-06T01:46:41;17.60;99.90
12827;DHT22;66927;48.812;9.118;2023-08-06T01:49:07;17.60;99.90
12827;DHT22;66927;48.812;9.118;2023-08-06T01:51:32;17.60;99.90
12827;DHT22;66927;48.812;9.118;2023-08-06T01:53:58;17.60;99.90
12827;DHT22;66927;48.812;9.118;2023-08-06T01:56:24;17.60;99.90
12827;DHT22;66927;48.812;9.118;2023-08-06T01:58:50;17.60;99.90
12827;DHT22;66927;48.812;9.118;2023-08-06T02:01:16;17.50;99.90
12827;DHT22;66927;48.812;9.118;2023-08-06T02:03:41;17.50;99.90
12827;DHT22;66927;48.812;9.118;2023-08-06T02:06:07;17.50;99.90
12827;DHT22;66927;48.812;9.118;2023-08-06T02:08:33;17.40;99.90
12827;DHT22;66927;48.812;9.118;2023-08-06T02:10:58;17.40;99.90
12827;DHT22;66927;48.812;9.118;2023-08-06T02:13:24;17.40;99.90
12827;DHT22;66927;48.812;9.118;2023-08-06T02:15:50;17.40;99.90
12827;DHT22;66927;48.812;9.118;2023-08-06T02:18:16;17.40;99.90
12827;DHT22;66927;48.812;9.118;2023-08-06T02:20:42;17.30;99.90
12827;DHT22;66927;48.812;9.118;2023-08-06T02:23:08;17.30;99.90
12827;DHT22;66927;48.812;9.118;2023-08-06T02:25:34;17.20;99.90
12827;DHT22;66927;48.812;9.118;2023-08-06T02:28:00;17.20;99.90
12827;DHT22;66927;48.812;9.118;2023-08-06T02:30:26;17.30;99.90
12827;DHT22;66927;48.812;9.118;2023-08-06T02:32:52;17.10;99.90
12827;DHT22;66927;48.812;9.118;2023-08-06T02:35:19;17.30;99.90
12827;DHT22;66927;48.812;9.118;2023-08-06T02:37:45;17.20;99.90
12827;DHT22;66927;48.812;9.118;2023-08-06T02:40:12;17.20;99.90
12827;DHT22;66927;48.812;9.118;2023-08-06T02:42:37;17.10;99.90
12827;DHT22;66927;48.812;9.118;2023-08-06T02:45:03;17.10;99.90
12827;DHT22;66927;48.812;9.118;2023-08-06T02:47:29;17.00;99.90
12827;DHT22;66927;48.812;9.118;2023-08-06T02:49:54;16.90;99.90
12827;DHT22;66927;48.812;9.118;2023-08-06T02:52:20;16.90;99.90
12827;DHT22;66927;48.812;9.118;2023-08-06T02:54:45;16.90;99.90
12827;DHT22;66927;48.812;9.118;2023-08-06T02:57:11;16.90;99.90
12827;DHT22;66927;48.812;9.118;2023-08-06T02:59:37;16.80;99.90
12827;DHT22;66927;48.812;9.118;2023-08-06T03:02:02;17.00;99.90
12827;DHT22;66927;48.812;9.118;2023-08-06T03:04:28;17.00;99.90
12827;DHT22;66927;48.812;9.118;2023-08-06T03:06:53;17.10;99.90
12827;DHT22;66927;48.812;9.118;2023-08-06T03:09:19;17.00;99.90
12827;DHT22;66927;48.812;9.118;2023-08-06T03:11:45;17.10;99.90
12827;DHT22;66927;48.812;9.118;2023-08-06T03:14:10;17.00;99.90
12827;DHT22;66927;48.812;9.118;2023-08-06T03:16:36;17.00;99.90
12827;DHT22;66927;48.812;9.118;2023-08-06T03:19:01;17.00;99.90
12827;DHT22;66927;48.812;9.118;2023-08-06T03:21:27;17.00;99.90
12827;DHT22;66927;48.812;9.118;2023-08-06T03:23:53;17.00;99.90
12827;DHT22;66927;48.812;9.118;2023-08-06T03:26:19;17.10;99.90
12827;DHT22;66927;48.812;9.118;2023-08-06T03:28:44;17.00;99.90
12827;DHT22;66927;48.812;9.118;2023-08-06T03:31:10;17.00;99.90
12827;DHT22;66927;48.812;9.118;2023-08-06T03:33:35;16.90;99.90
12827;DHT22;66927;48.812;9.118;2023-08-06T03:36:01;16.90;99.90
12827;DHT22;66927;48.812;9.118;2023-08-06T03:38:27;16.90;99.90
12827;DHT22;66927;48.812;9.118;2023-08-06T03:40:53;16.70;99.90
12827;DHT22;66927;48.812;9.118;2023-08-06T03:43:18;16.80;99.90
12827;DHT22;66927;48.812;9.118;2023-08-06T03:45:44;16.80;99.90
12827;DHT22;66927;48.812;9.118;2023-08-06T03:48:10;16.80;99.90
12827;DHT22;66927;48.812;9.118;2023-08-06T03:50:35;16.80;99.90
12827;DHT22;66927;48.812;9.118;2023-08-06T03:53:01;16.90;99.90
12827;DHT22;66927;48.812;9.118;2023-08-06T03:55:27;16.80;99.90
12827;DHT22;66927;48.812;9.118;2023-08-06T03:57:52;16.70;99.90
12827;DHT22;66927;48.812;9.118;2023-08-06T04:00:18;16.80;99.90
12827;DHT22;66927;48.812;9.118;2023-08-06T04:02:45;16.80;99.90
12827;DHT22;66927;48.812;9.118;2023-08-06T04:05:10;16.80;99.90
12827;DHT22;66927;48.812;9.118;2023-08-06T04:07:36;17.00;99.90
12827;DHT22;66927;48.812;9.118;2023-08-06T04:10:03;16.90;99.90
12827;DHT22;66927;48.812;9.118;2023-08-06T04:12:31;16.90;99.90
12827;DHT22;66927;48.812;9.118;2023-08-06T04:14:58;17.00;99.90
12827;DHT22;66927;48.812;9.118;2023-08-06T04:17:24;17.00;99.90
12827;DHT22;66927;48.812;9.118;2023-08-06T04:19:54;17.00;99.90
12827;DHT22;66927;48.812;9.118;2023-08-06T04:22:20;17.00;99.90
12827;DHT22;66927;48.812;9.118;2023-08-06T04:24:47;17.00;99.90
12827;DHT22;66927;48.812;9.118;2023-08-06T04:27:14;16.90;99.90
12827;DHT22;66927;48.812;9.118;2023-08-06T04:29:42;16.90;99.90
12827;DHT22;66927;48.812;9.118;2023-08-06T04:32:09;16.90;99.90
12827;DHT22;66927;48.812;9.118;2023-08-06T04:34:35;17.00;99.90
12827;DHT22;66927;48.812;9.118;2023-08-06T04:37:02;17.00;99.90
12827;DHT22;66927;48.812;9.118;2023-08-06T04:39:29;17.00;99.90
12827;DHT22;66927;48.812;9.118;2023-08-06T04:41:55;17.10;99.90
12827;DHT22;66927;48.812;9.118;2023-08-06T04:44:21;17.20;99.90
12827;DHT22;66927;48.812;9.118;2023-08-06T04:46:47;17.10;99.90
12827;DHT22;66927;48.812;9.118;2023-08-06T04:49:13;17.10;99.90
12827;DHT22;66927;48.812;9.118;2023-08-06T04:51:38;17.10;99.90
12827;DHT22;66927;48.812;9.118;2023-08-06T04:54:04;17.10;99.90
12827;DHT22;66927;48.812;9.118;2023-08-06T04:56:29;17.10;99.90
12827;DHT22;66927;48.812;9.118;2023-08-06T04:58:55;17.00;99.90
12827;DHT22;66927;48.812;9.118;2023-08-06T05:01:20;17.10;99.90
12827;DHT22;66927;48.812;9.118;2023-08-06T05:03:47;17.00;99.90
12827;DHT22;66927;48.812;9.118;2023-08-06T05:06:13;16.90;99.90
12827;DHT22;66927;48.812;9.118;2023-08-06T05:08:38;16.90;99.90
12827;DHT22;66927;48.812;9.118;2023-08-06T05:11:04;16.90;99.90
12827;DHT22;66927;48.812;9.118;2023-08-06T05:13:29;16.90;99.90
12827;DHT22;66927;48.812;9.118;2023-08-06T05:15:55;16.90;99.90
12827;DHT22;66927;48.812;9.118;2023-08-06T05:18:21;16.90;99.90
12827;DHT22;66927;48.812;9.118;2023-08-06T05:20:48;16.90;99.90
12827;DHT22;66927;48.812;9.118;2023-08-06T05:23:13;16.90;99.90
12827;DHT22;66927;48.812;9.118;2023-08-06T05:25:39;16.90;99.90
12827;DHT22;66927;48.812;9.118;2023-08-06T05:28:05;17.00;99.90
12827;DHT22;66927;48.812;9.118;2023-08-06T05:30:32;16.90;99.90
12827;DHT22;66927;48.812;9.118;2023-08-06T05:32:58;16.90;99.90
12827;DHT22;66927;48.812;9.118;2023-08-06T05:35:24;16.90;99.90
12827;DHT22;66927;48.812;9.118;2023-08-06T05:37:53;16.90;99.90
12827;DHT22;66927;48.812;9.118;2023-08-06T05:40:18;16.90;99.90
12827;DHT22;66927;48.812;9.118;2023-08-06T05:42:44;17.00;99.90
12827;DHT22;66927;48.812;9.118;2023-08-06T05:45:10;17.00;99.90
12827;DHT22;66927;48.812;9.118;2023-08-06T05:47:35;16.90;99.90
12827;DHT22;66927;48.812;9.118;2023-08-06T05:50:01;17.00;99.90
12827;DHT22;66927;48.812;9.118;2023-08-06T05:52:27;16.70;99.90
12827;DHT22;66927;48.812;9.118;2023-08-06T05:54:52;16.70;99.90
12827;DHT22;66927;48.812;9.118;2023-08-06T05:57:18;16.50;99.90
12827;DHT22;66927;48.812;9.118;2023-08-06T05:59:44;16.50;99.90
12827;DHT22;66927;48.812;9.118;2023-08-06T06:02:10;16.20;99.90
12827;DHT22;66927;48.812;9.118;2023-08-06T06:04:36;16.20;99.90
12827;DHT22;66927;48.812;9.118;2023-08-06T06:07:02;16.20;99.90
12827;DHT22;66927;48.812;9.118;2023-08-06T06:09:28;16.20;99.90
12827;DHT22;66927;48.812;9.118;2023-08-06T06:11:53;16.30;99.90
12827;DHT22;66927;48.812;9.118;2023-08-06T06:14:19;16.30;99.90
12827;DHT22;66927;48.812;9.118;2023-08-06T06:16:45;16.20;99.90
12827;DHT22;66927;48.812;9.118;2023-08-06T06:19:11;16.30;99.90
12827;DHT22;66927;48.812;9.118;2023-08-06T06:21:37;16.30;99.90
12827;DHT22;66927;48.812;9.118;2023-08-06T06:24:04;16.30;99.90
12827;DHT22;66927;48.812;9.118;2023-08-06T06:26:30;16.30;99.90
12827;DHT22;66927;48.812;9.118;2023-08-06T06:28:56;16.40;99.90
12827;DHT22;66927;48.812;9.118;2023-08-06T06:31:22;16.30;99.90
12827;DHT22;66927;48.812;9.118;2023-08-06T06:33:47;16.30;99.90
12827;DHT22;66927;48.812;9.118;2023-08-06T06:36:13;16.20;99.90
12827;DHT22;66927;48.812;9.118;2023-08-06T06:38:39;16.10;99.90
12827;DHT22;66927;48.812;9.118;2023-08-06T06:41:06;16.20;99.90
12827;DHT22;66927;48.812;9.118;2023-08-06T06:43:31;16.20;99.90
12827;DHT22;66927;48.812;9.118;2023-08-06T06:46:00;16.20;99.90
12827;DHT22;66927;48.812;9.118;2023-08-06T06:48:27;16.30;99.90
12827;DHT22;66927;48.812;9.118;2023-08-06T06:50:53;16.30;99.90
12827;DHT22;66927;48.812;9.118;2023-08-06T06:53:18;16.30;99.90
12827;DHT22;66927;48.812;9.118;2023-08-06T06:55:44;16.30;99.90
12827;DHT22;66927;48.812;9.118;2023-08-06T06:58:11;16.30;99.90
12827;DHT22;66927;48.812;9.118;2023-08-06T07:00:37;16.20;99.90
12827;DHT22;66927;48.812;9.118;2023-08-06T07:03:03;16.40;99.90
12827;DHT22;66927;48.812;9.118;2023-08-06T07:05:29;16.30;99.90
12827;DHT22;66927;48.812;9.118;2023-08-06T07:07:56;16.30;99.90
12827;DHT22;66927;48.812;9.118;2023-08-06T07:10:22;16.30;99.90
12827;DHT22;66927;48.812;9.118;2023-08-06T07:12:48;16.30;99.90
12827;DHT22;66927;48.812;9.118;2023-08-06T07:15:13;16.30;99.90
12827;DHT22;66927;48.812;9.118;2023-08-06T07:17:39;16.30;99.90
12827;DHT22;66927;48.812;9.118;2023-08-06T07:20:06;16.30;99.90
12827;DHT22;66927;48.812;9.118;2023-08-06T07:22:31;16.30;99.90
12827;DHT22;66927;48.812;9.118;2023-08-06T07:24:57;16.30;99.90
12827;DHT22;66927;48.812;9.118;2023-08-06T07:27:23;16.40;99.90
12827;DHT22;66927;48.812;9.118;2023-08-06T07:29:51;16.30;99.90
12827;DHT22;66927;48.812;9.118;2023-08-06T07:32:17;16.20;99.90
12827;DHT22;66927;48.812;9.118;2023-08-06T07:34:42;16.10;99.90
12827;DHT22;66927;48.812;9.118;2023-08-06T07:37:08;16.10;99.90
12827;DHT22;66927;48.812;9.118;2023-08-06T07:39:34;16.10;99.90
12827;DHT22;66927;48.812;9.118;2023-08-06T07:41:59;16.10;99.90
12827;DHT22;66927;48.812;9.118;2023-08-06T07:44:27;16.00;99.90
12827;DHT22;66927;48.812;9.118;2023-08-06T07:46:53;16.20;99.90
12827;DHT22;66927;48.812;9.118;2023-08-06T07:49:18;16.10;99.90
12827;DHT22;66927;48.812;9.118;2023-08-06T07:51:44;16.10;99.90
12827;DHT22;66927;48.812;9.118;2023-08-06T07:54:10;16.10;99.90
12827;DHT22;66927;48.812;9.118;2023-08-06T07:56:35;16.00;99.90
12827;DHT22;66927;48.812;9.118;2023-08-06T07:59:03;16.00;99.90
12827;DHT22;66927;48.812;9.118;2023-08-06T08:01:28;15.80;99.90
12827;DHT22;66927;48.812;9.118;2023-08-06T08:03:54;15.90;99.90
12827;DHT22;66927;48.812;9.118;2023-08-06T08:06:20;15.90;99.90
12827;DHT22;66927;48.812;9.118;2023-08-06T08:08:45;16.10;99.90
12827;DHT22;66927;48.812;9.118;2023-08-06T08:11:11;16.10;99.90
12827;DHT22;66927;48.812;9.118;2023-08-06T08:13:37;16.20;99.90
12827;DHT22;66927;48.812;9.118;2023-08-06T08:16:02;16.20;99.90
12827;DHT22;66927;48.812;9.118;2023-08-06T08:18:28;16.10;99.90
12827;DHT22;66927;48.812;9.118;2023-08-06T08:20:55;16.10;99.90
12827;DHT22;66927;48.812;9.118;2023-08-06T08:23:21;16.10;99.90
12827;DHT22;66927;48.812;9.118;2023-08-06T08:25:47;16.20;99.90
12827;DHT22;66927;48.812;9.118;2023-08-06T08:28:16;16.30;99.90
12827;DHT22;66927;48.812;9.118;2023-08-06T08:30:41;16.30;99.90
12827;DHT22;66927;48.812;9.118;2023-08-06T08:33:08;16.30;99.90
12827;DHT22;66927;48.812;9.118;2023-08-06T08:35:34;16.40;99.90
12827;DHT22;66927;48.812;9.118;2023-08-06T08:38:01;16.40;99.90
12827;DHT22;66927;48.812;9.118;2023-08-06T08:40:31;16.30;99.90
12827;DHT22;66927;48.812;9.118;2023-08-06T08:42:58;16.50;99.90
12827;DHT22;66927;48.812;9.118;2023-08-06T08:45:26;16.40;99.90
12827;DHT22;66927;48.812;9.118;2023-08-06T08:47:53;16.50;99.90
12827;DHT22;66927;48.812;9.118;2023-08-06T08:50:20;16.50;99.90
12827;DHT22;66927;48.812;9.118;2023-08-06T08:52:51;16.40;99.90
12827;DHT22;66927;48.812;9.118;2023-08-06T08:55:17;16.40;99.90
12827;DHT22;66927;48.812;9.118;2023-08-06T08:57:44;16.40;99.90
12827;DHT22;66927;48.812;9.118;2023-08-06T09:00:11;16.30;99.90
12827;DHT22;66927;48.812;9.118;2023-08-06T09:02:39;16.20;99.90
12827;DHT22;66927;48.812;9.118;2023-08-06T09:05:07;16.20;99.90
12827;DHT22;66927;48.812;9.118;2023-08-06T09:07:47;16.10;99.90
12827;DHT22;66927;48.812;9.118;2023-08-06T09:10:14;16.10;99.90
12827;DHT22;66927;48.812;9.118;2023-08-06T09:12:43;16.10;99.90
12827;DHT22;66927;48.812;9.118;2023-08-06T09:15:10;16.10;99.90
12827;DHT22;66927;48.812;9.118;2023-08-06T09:17:37;16.20;99.90
12827;DHT22;66927;48.812;9.118;2023-08-06T09:20:10;16.20;99.90
12827;DHT22;66927;48.812;9.118;2023-08-06T09:22:36;16.10;99.90
12827;DHT22;66927;48.812;9.118;2023-08-06T09:25:03;16.20;99.90
12827;DHT22;66927;48.812;9.118;2023-08-06T09:27:31;16.10;99.90
12827;DHT22;66927;48.812;9.118;2023-08-06T09:29:57;16.30;99.90
12827;DHT22;66927;48.812;9.118;2023-08-06T09:32:24;16.10;99.90
12827;DHT22;66927;48.812;9.118;2023-08-06T09:34:56;16.10;99.90
12827;DHT22;66927;48.812;9.118;2023-08-06T09:37:22;16.10;99.90
12827;DHT22;66927;48.812;9.118;2023-08-06T09:39:47;16.10;99.90
12827;DHT22;66927;48.812;9.118;2023-08-06T09:42:15;16.10;99.90
12827;DHT22;66927;48.812;9.118;2023-08-06T09:44:42;16.10;99.90
12827;DHT22;66927;48.812;9.118;2023-08-06T09:47:07;16.20;99.90
12827;DHT22;66927;48.812;9.118;2023-08-06T09:51:59;16.00;99.90
12827;DHT22;66927;48.812;9.118;2023-08-06T09:54:27;16.10;99.90
12827;DHT22;66927;48.812;9.118;2023-08-06T09:56:54;16.10;99.90
12827;DHT22;66927;48.812;9.118;2023-08-06T09:59:20;16.10;99.90
12827;DHT22;66927;48.812;9.118;2023-08-06T10:01:46;16.10;99.90
12827;DHT22;66927;48.812;9.118;2023-08-06T10:04:14;16.10;99.90
12827;DHT22;66927;48.812;9.118;2023-08-06T10:06:42;16.00;99.90
12827;DHT22;66927;48.812;9.118;2023-08-06T10:09:08;16.00;99.90
12827;DHT22;66927;48.812;9.118;2023-08-06T10:11:36;16.10;99.90
12827;DHT22;66927;48.812;9.118;2023-08-06T10:14:12;16.20;99.90
12827;DHT22;66927;48.812;9.118;2023-08-06T10:16:40;16.20;99.90
12827;DHT22;66927;48.812;9.118;2023-08-06T10:19:08;16.30;99.90
12827;DHT22;66927;48.812;9.118;2023-08-06T10:21:35;16.20;99.90
12827;DHT22;66927;48.812;9.118;2023-08-06T10:24:00;16.30;99.90
12827;DHT22;66927;48.812;9.118;2023-08-06T10:26:29;16.30;99.90
12827;DHT22;66927;48.812;9.118;2023-08-06T10:28:55;16.10;99.90
12827;DHT22;66927;48.812;9.118;2023-08-06T10:31:53;16.10;99.90
12827;DHT22;66927;48.812;9.118;2023-08-06T10:34:18;16.10;99.90
12827;DHT22;66927;48.812;9.118;2023-08-06T10:36:45;16.00;99.90
12827;DHT22;66927;48.812;9.118;2023-08-06T10:39:13;16.10;99.90
12827;DHT22;66927;48.812;9.118;2023-08-06T10:41:42;16.20;99.90
12827;DHT22;66927;48.812;9.118;2023-08-06T10:44:09;16.30;99.90
12827;DHT22;66927;48.812;9.118;2023-08-06T10:46:35;16.30;99.90
12827;DHT22;66927;48.812;9.118;2023-08-06T10:49:03;16.30;99.90
12827;DHT22;66927;48.812;9.118;2023-08-06T10:51:29;16.20;99.90
12827;DHT22;66927;48.812;9.118;2023-08-06T10:53:55;16.20;99.90
12827;DHT22;66927;48.812;9.118;2023-08-06T10:56:23;16.20;99.90
12827;DHT22;66927;48.812;9.118;2023-08-06T10:58:52;16.10;99.90
12827;DHT22;66927;48.812;9.118;2023-08-06T11:01:21;16.10;99.90
12827;DHT22;66927;48.812;9.118;2023-08-06T11:03:48;16.10;99.90
12827;DHT22;66927;48.812;9.118;2023-08-06T11:06:22;16.00;99.90
12827;DHT22;66927;48.812;9.118;2023-08-06T11:08:53;16.10;99.90
12827;DHT22;66927;48.812;9.118;2023-08-06T11:11:19;15.90;99.90
12827;DHT22;66927;48.812;9.118;2023-08-06T11:13:47;15.90;99.90
12827;DHT22;66927;48.812;9.118;2023-08-06T11:16:14;15.80;99.90
12827;DHT22;66927;48.812;9.118;2023-08-06T11:18:41;15.80;99.90
12827;DHT22;66927;48.812;9.118;2023-08-06T11:21:08;15.80;99.90
12827;DHT22;66927;48.812;9.118;2023-08-06T11:23:34;15.70;99.90
12827;DHT22;66927;48.812;9.118;2023-08-06T11:26:00;15.60;99.90
12827;DHT22;66927;48.812;9.118;2023-08-06T11:28:26;15.60;99.90
12827;DHT22;66927;48.812;9.118;2023-08-06T11:30:52;15.70;99.90
12827;DHT22;66927;48.812;9.118;2023-08-06T11:33:24;15.70;99.90
12827;DHT22;66927;48.812;9.118;2023-08-06T11:35:54;15.70;99.90
12827;DHT22;66927;48.812;9.118;2023-08-06T11:38:20;15.60;99.90
12827;DHT22;66927;48.812;9.118;2023-08-06T11:40:47;15.60;99.90
12827;DHT22;66927;48.812;9.118;2023-08-06T11:43:13;15.50;99.90
12827;DHT22;66927;48.812;9.118;2023-08-06T11:45:39;15.50;99.90
12827;DHT22;66927;48.812;9.118;2023-08-06T11:48:08;15.40;99.90
12827;DHT22;66927;48.812;9.118;2023-08-06T11:50:37;15.30;99.90
12827;DHT22;66927;48.812;9.118;2023-08-06T11:53:04;15.20;99.90
12827;DHT22;66927;48.812;9.118;2023-08-06T11:55:30;15.30;99.90
12827;DHT22;66927;48.812;9.118;2023-08-06T11:57:57;15.20;99.90
12827;DHT22;66927;48.812;9.118;2023-08-06T12:00:24;15.20;99.90
12827;DHT22;66927;48.812;9.118;2023-08-06T12:02:52;15.20;99.90
12827;DHT22;66927;48.812;9.118;2023-08-06T12:05:23;15.10;99.90
12827;DHT22;66927;48.812;9.118;2023-08-06T12:07:56;15.00;99.90
12827;DHT22;66927;48.812;9.118;2023-08-06T12:10:24;15.00;99.90
12827;DHT22;66927;48.812;9.118;2023-08-06T12:12:49;15.00;99.90
12827;DHT22;66927;48.812;9.118;2023-08-06T12:15:15;15.00;99.90
12827;DHT22;66927;48.812;9.118;2023-08-06T12:17:42;15.10;99.90
12827;DHT22;66927;48.812;9.118;2023-08-06T12:20:08;15.00;99.90
12827;DHT22;66927;48.812;9.118;2023-08-06T12:22:36;14.90;99.90
12827;DHT22;66927;48.812;9.118;2023-08-06T12:25:05;15.00;99.90
12827;DHT22;66927;48.812;9.118;2023-08-06T12:27:38;15.00;99.90
12827;DHT22;66927;48.812;9.118;2023-08-06T12:30:05;14.80;99.90
12827;DHT22;66927;48.812;9.118;2023-08-06T12:32:31;14.90;99.90
12827;DHT22;66927;48.812;9.118;2023-08-06T12:34:56;14.90;99.90
12827;DHT22;66927;48.812;9.118;2023-08-06T12:37:24;15.10;99.90
12827;DHT22;66927;48.812;9.118;2023-08-06T12:39:49;15.20;99.90
12827;DHT22;66927;48.812;9.118;2023-08-06T12:42:15;15.30;99.90
12827;DHT22;66927;48.812;9.118;2023-08-06T12:44:40;15.50;99.90
12827;DHT22;66927;48.812;9.118;2023-08-06T12:47:07;15.70;99.90
12827;DHT22;66927;48.812;9.118;2023-08-06T12:49:33;15.90;99.90
12827;DHT22;66927;48.812;9.118;2023-08-06T12:51:59;16.10;99.90
12827;DHT22;66927;48.812;9.118;2023-08-06T12:54:26;16.30;99.90
12827;DHT22;66927;48.812;9.118;2023-08-06T12:56:52;16.60;99.90
12827;DHT22;66927;48.812;9.118;2023-08-06T12:59:18;16.60;99.90
12827;DHT22;66927;48.812;9.118;2023-08-06T13:01:44;16.50;99.90
12827;DHT22;66927;48.812;9.118;2023-08-06T13:04:10;16.40;99.90
12827;DHT22;66927;48.812;9.118;2023-08-06T13:06:37;16.50;99.90
12827;DHT22;66927;48.812;9.118;2023-08-06T13:09:04;16.60;99.90
12827;DHT22;66927;48.812;9.118;2023-08-06T13:11:31;16.50;99.90
12827;DHT22;66927;48.812;9.118;2023-08-06T13:14:11;16.50;99.90
12827;DHT22;66927;48.812;9.118;2023-08-06T13:16:40;16.50;99.90
12827;DHT22;66927;48.812;9.118;2023-08-06T13:19:07;16.50;99.90
12827;DHT22;66927;48.812;9.118;2023-08-06T13:21:34;16.20;99.90
12827;DHT22;66927;48.812;9.118;2023-08-06T13:24:03;16.30;99.90
12827;DHT22;66927;48.812;9.118;2023-08-06T13:26:30;16.30;99.90
12827;DHT22;66927;48.812;9.118;2023-08-06T13:28:59;16.30;99.90
12827;DHT22;66927;48.812;9.118;2023-08-06T13:31:26;16.50;99.90
12827;DHT22;66927;48.812;9.118;2023-08-06T13:33:55;16.60;99.90
12827;DHT22;66927;48.812;9.118;2023-08-06T13:36:23;16.60;99.90
12827;DHT22;66927;48.812;9.118;2023-08-06T13:38:49;16.60;99.90
12827;DHT22;66927;48.812;9.118;2023-08-06T13:41:16;16.40;99.90
12827;DHT22;66927;48.812;9.118;2023-08-06T13:43:42;16.30;99.90
12827;DHT22;66927;48.812;9.118;2023-08-06T13:46:09;16.20;99.90
12827;DHT22;66927;48.812;9.118;2023-08-06T13:48:39;16.20;99.90
12827;DHT22;66927;48.812;9.118;2023-08-06T13:51:04;15.90;99.90
12827;DHT22;66927;48.812;9.118;2023-08-06T13:53:30;16.10;99.90
12827;DHT22;66927;48.812;9.118;2023-08-06T13:55:57;16.10;99.90
12827;DHT22;66927;48.812;9.118;2023-08-06T13:58:23;16.10;99.90
12827;DHT22;66927;48.812;9.118;2023-08-06T14:00:49;16.10;99.90
12827;DHT22;66927;48.812;9.118;2023-08-06T14:03:18;16.20;99.90
12827;DHT22;66927;48.812;9.118;2023-08-06T14:05:44;16.20;99.90
12827;DHT22;66927;48.812;9.118;2023-08-06T14:08:09;16.10;99.90
12827;DHT22;66927;48.812;9.118;2023-08-06T14:10:35;16.00;99.90
12827;DHT22;66927;48.812;9.118;2023-08-06T14:13:00;16.00;99.90
12827;DHT22;66927;48.812;9.118;2023-08-06T14:15:26;16.10;99.90
12827;DHT22;66927;48.812;9.118;2023-08-06T14:17:51;16.00;99.90
12827;DHT22;66927;48.812;9.118;2023-08-06T14:20:17;16.00;99.90
12827;DHT22;66927;48.812;9.118;2023-08-06T14:22:43;15.90;99.90
12827;DHT22;66927;48.812;9.118;2023-08-06T14:25:08;16.10;99.90
12827;DHT22;66927;48.812;9.118;2023-08-06T14:27:34;16.00;99.90
12827;DHT22;66927;48.812;9.118;2023-08-06T14:30:00;16.10;99.90
12827;DHT22;66927;48.812;9.118;2023-08-06T14:32:28;16.20;99.90
12827;DHT22;66927;48.812;9.118;2023-08-06T14:34:54;16.40;99.90
12827;DHT22;66927;48.812;9.118;2023-08-06T14:37:19;16.40;99.90
12827;DHT22;66927;48.812;9.118;2023-08-06T14:39:45;16.50;99.90
12827;DHT22;66927;48.812;9.118;2023-08-06T14:42:10;16.50;99.90
12827;DHT22;66927;48.812;9.118;2023-08-06T14:44:36;16.40;99.90
12827;DHT22;66927;48.812;9.118;2023-08-06T14:47:03;16.40;99.90
12827;DHT22;66927;48.812;9.118;2023-08-06T14:49:29;16.50;99.90
12827;DHT22;66927;48.812;9.118;2023-08-06T14:51:55;16.30;99.90
12827;DHT22;66927;48.812;9.118;2023-08-06T14:54:24;16.10;99.90
12827;DHT22;66927;48.812;9.118;2023-08-06T14:56:50;16.10;99.90
12827;DHT22;66927;48.812;9.118;2023-08-06T14:59:15;16.00;99.90
12827;DHT22;66927;48.812;9.118;2023-08-06T15:01:41;16.00;99.90
12827;DHT22;66927;48.812;9.118;2023-08-06T15:04:06;15.80;99.90
12827;DHT22;66927;48.812;9.118;2023-08-06T15:06:32;15.70;99.90
12827;DHT22;66927;48.812;9.118;2023-08-06T15:08:57;15.50;99.90
12827;DHT22;66927;48.812;9.118;2023-08-06T15:11:23;15.40;99.90
12827;DHT22;66927;48.812;9.118;2023-08-06T15:13:50;15.60;99.90
12827;DHT22;66927;48.812;9.118;2023-08-06T15:16:15;15.70;99.90
12827;DHT22;66927;48.812;9.118;2023-08-06T15:18:41;15.80;99.90
12827;DHT22;66927;48.812;9.118;2023-08-06T15:21:07;16.00;99.90
12827;DHT22;66927;48.812;9.118;2023-08-06T15:23:33;16.00;99.90
12827;DHT22;66927;48.812;9.118;2023-08-06T15:25:58;16.10;99.90
12827;DHT22;66927;48.812;9.118;2023-08-06T15:28:24;16.10;99.90
12827;DHT22;66927;48.812;9.118;2023-08-06T15:30:50;16.30;99.90